Albion, Michigan
Current Conditions -  °F | °C
As of 9:33 PM on Sunday 23 Nov 2014 (Local Time) from KRMY Reporting Station
Moderate Rain Moderate Rain  
Wind Chill: 43°   Ceiling: 1000
Heat Index: 49°   Visibility: 5mi
Dew Point: 47°   Wind: 13mph
Humidity: 95%   Direction: 130°SE
Pressure: 29.31"   Gusts: 20mph
Location:  42.25°N, 84.75°W
Report Text: KRMY 240233Z AUTO 13011G17KT 5SM RA OVC010 09/09 A2931 RMK AO2 P0009 T00920085
Loading
Personal Weather Stations






























Interactive Weather Map New forecast layout! Learn more

10-Day Weather Forecast

Advertisements
Track Severe Weather on mobile